Time;durP1;ratioP1;P1;durP2;ratioP2;P2;SDS_P1;SDS_P2;PMS_P1;PMS_P2;Temp;Humidity;BMP_temperature;BMP_pressure;BME280_temperature;BME280_humidity;BME280_pressure;Samples;Min_cycle;Max_cycle;Signal;HPM_P1;HPM_P2
2022/02/06 00:00:44;;;;;;;17.58;8.70;;;4.40;99.90;;;;;;4938447;29;20439;-88
2022/02/06 00:03:11;;;;;;;16.75;9.65;;;3.70;99.90;;;;;;4921549;29;20043;-88
2022/02/06 00:05:37;;;;;;;19.58;9.63;;;3.60;99.90;;;;;;4933958;29;20406;-88
2022/02/06 00:08:09;;;;;;;16.83;9.48;;;3.60;99.90;;;;;;4902812;29;20060;-89
2022/02/06 00:10:35;;;;;;;17.08;9.50;;;3.60;99.90;;;;;;4946644;29;20031;-88
2022/02/06 00:13:01;;;;;;;16.17;10.05;;;3.50;99.90;;;;;;4938840;29;20055;-88
2022/02/06 00:15:27;;;;;;;18.10;10.60;;;3.60;99.90;;;;;;4938374;29;20027;-88
2022/02/06 00:17:52;;;;;;;17.95;10.07;;;3.50;99.90;;;;;;4938588;29;20035;-88
2022/02/06 00:20:19;;;;;;;16.27;10.20;;;3.70;99.90;;;;;;4936152;29;20027;-88
2022/02/06 00:22:50;;;;;;;15.13;9.13;;;3.40;99.90;;;;;;4936839;29;20064;-88
2022/02/06 00:25:30;;;;;;;18.77;9.70;;;3.30;99.90;;;;;;4936599;29;20118;-88
2022/02/06 00:30:51;;;;;;;19.55;10.02;;;3.90;99.90;;;;;;4938152;29;20035;-89
2022/02/06 00:41:21;;;;;;;18.02;9.15;;;3.30;99.90;;;;;;4878159;29;20033;-88
2022/02/06 00:43:47;;;;;;;15.48;8.38;;;3.30;99.90;;;;;;4878353;29;20052;-88
2022/02/06 00:46:15;;;;;;;17.80;8.57;;;3.20;99.90;;;;;;4880164;29;20044;-88
2022/02/06 00:48:45;;;;;;;16.95;9.10;;;3.20;99.90;;;;;;4883469;29;20025;-88
2022/02/06 00:51:20;;;;;;;14.32;8.88;;;3.10;99.90;;;;;;4886262;29;20486;-88
2022/02/06 00:53:46;;;;;;;15.90;9.13;;;3.10;99.90;;;;;;4884484;29;20100;-88
2022/02/06 00:56:12;;;;;;;17.05;8.32;;;3.20;99.90;;;;;;4882553;29;20040;-88
2022/02/06 00:58:37;;;;;;;15.98;8.98;;;3.80;99.90;;;;;;4883073;29;20478;-88
2022/02/06 01:01:04;;;;;;;15.85;9.27;;;3.70;99.90;;;;;;4884615;29;20041;-87
2022/02/06 01:03:30;;;;;;;18.05;8.55;;;3.20;99.90;;;;;;4884441;29;20411;-88
2022/02/06 01:05:56;;;;;;;17.13;8.57;;;3.00;99.90;;;;;;4882603;29;20116;-87
2022/02/06 01:08:22;;;;;;;15.70;7.78;;;2.90;99.90;;;;;;4894024;29;20124;-88
2022/02/06 01:10:48;;;;;;;12.98;7.75;;;2.90;99.90;;;;;;4881880;29;20080;-88
2022/02/06 01:13:26;;;;;;;16.20;8.32;;;2.90;99.90;;;;;;4883385;29;20037;-89
2022/02/06 01:16:09;;;;;;;12.73;7.72;;;2.90;99.90;;;;;;4914721;29;20031;-88
2022/02/06 01:18:40;;;;;;;14.23;8.50;;;2.90;99.90;;;;;;4942240;29;20028;-88
2022/02/06 01:21:18;;;;;;;15.82;8.57;;;3.10;99.90;;;;;;4925550;29;20032;-88
2022/02/06 01:23:54;;;;;;;18.52;10.40;;;2.80;99.90;;;;;;4926089;29;20046;-88
2022/02/06 01:26:34;;;;;;;20.27;9.55;;;2.80;99.90;;;;;;4939225;29;20079;-88
2022/02/06 01:29:11;;;;;;;15.93;9.05;;;2.70;99.90;;;;;;4920421;29;20496;-88
2022/02/06 01:31:49;;;;;;;20.38;9.88;;;3.40;99.90;;;;;;4949984;29;20090;-89
2022/02/06 01:34:19;;;;;;;16.67;10.10;;;2.70;99.90;;;;;;4926957;29;20400;-88
2022/02/06 01:36:50;;;;;;;15.27;9.45;;;2.60;99.90;;;;;;4941353;29;20082;-89
2022/02/06 01:39:37;;;;;;;17.42;9.95;;;3.20;99.90;;;;;;4941546;29;20038;-89
2022/02/06 01:42:07;;;;;;;18.13;9.57;;;3.10;99.90;;;;;;4940357;29;20048;-88
2022/02/06 01:44:51;;;;;;;17.00;9.57;;;2.40;99.90;;;;;;4940601;29;20047;-88
2022/02/06 02:17:13;;;;;;;13.85;6.80;;;2.30;99.90;;;;;;4894059;29;20123;-88
2022/02/06 02:22:24;;;;;;;11.93;6.72;;;2.40;99.90;;;;;;4897421;29;20136;-88
2022/02/06 02:48:26;;;;;;;14.23;7.88;;;2.30;99.90;;;;;;4940479;29;20085;-88
2022/02/06 02:50:57;;;;;;;15.50;7.93;;;2.40;99.90;;;;;;4939907;29;20067;-88
2022/02/06 02:59:01;;;;;;;10.68;6.60;;;2.40;99.90;;;;;;4937600;29;20078;-88
2022/02/06 03:01:34;;;;;;;14.35;7.35;;;2.40;99.90;;;;;;4940764;29;20063;-88
2022/02/06 03:03:59;;;;;;;14.23;6.50;;;2.30;99.90;;;;;;4939996;29;20054;-88
2022/02/06 03:06:25;;;;;;;12.10;7.05;;;3.00;99.90;;;;;;4940067;29;20481;-88
2022/02/06 03:08:52;;;;;;;13.00;7.35;;;2.80;99.90;;;;;;4924374;29;20038;-89
2022/02/06 03:11:18;;;;;;;15.80;6.97;;;2.30;99.90;;;;;;4918531;29;20032;-89
2022/02/06 03:16:33;;;;;;;10.88;6.72;;;2.40;99.90;;;;;;4940491;29;20548;-88
2022/02/06 03:21:30;;;;;;;16.08;7.20;;;2.80;99.90;;;;;;4939504;29;20028;-88
2022/02/06 03:24:06;;;;;;;16.90;7.43;;;2.20;99.90;;;;;;4939016;29;20126;-88
2022/02/06 03:26:32;;;;;;;18.55;7.10;;;2.20;99.90;;;;;;4938450;29;20034;-88
2022/02/06 03:28:57;;;;;;;14.07;7.18;;;2.30;99.90;;;;;;4936857;29;20024;-88
2022/02/06 03:31:24;;;;;;;13.00;6.95;;;2.40;99.90;;;;;;4939874;29;20477;-88
2022/02/06 03:33:51;;;;;;;10.05;7.20;;;2.40;99.90;;;;;;4923356;29;20396;-88
2022/02/06 03:36:18;;;;;;;11.65;7.50;;;2.40;99.90;;;;;;4939699;29;20110;-88
2022/02/06 03:38:46;;;;;;;14.65;7.55;;;2.30;99.90;;;;;;4923025;29;20081;-89
2022/02/06 03:41:13;;;;;;;11.75;6.95;;;2.20;99.90;;;;;;4936142;29;20032;-89
2022/02/06 03:46:14;;;;;;;12.75;7.80;;;2.20;99.90;;;;;;4939476;29;20032;-89
2022/02/06 03:48:48;;;;;;;13.13;7.80;;;2.10;99.90;;;;;;4931314;29;20118;-88
2022/02/06 03:51:22;;;;;;;12.30;6.95;;;2.00;99.90;;;;;;4945249;29;20031;-88
2022/02/06 03:53:51;;;;;;;16.33;7.75;;;1.90;99.90;;;;;;4938571;29;20050;-89
2022/02/06 03:56:17;;;;;;;17.55;7.55;;;2.00;99.90;;;;;;4935575;29;20023;-88
2022/02/06 03:58:43;;;;;;;14.05;7.57;;;2.10;99.90;;;;;;4935147;29;20039;-88
2022/02/06 04:01:08;;;;;;;17.10;7.80;;;2.40;99.90;;;;;;4939454;29;20036;-88
2022/02/06 04:03:34;;;;;;;15.63;7.53;;;2.10;99.90;;;;;;4921691;29;20071;-89
2022/02/06 04:06:00;;;;;;;14.77;7.57;;;2.10;99.90;;;;;;4938911;29;20035;-88
2022/02/06 04:08:28;;;;;;;15.25;8.10;;;2.10;99.90;;;;;;4937050;29;20031;-89
2022/02/06 04:10:54;;;;;;;14.95;8.10;;;2.00;99.90;;;;;;4935962;29;20032;-89
2022/02/06 04:13:26;;;;;;;14.65;8.00;;;2.50;99.90;;;;;;4939516;29;20039;-87
2022/02/06 04:15:59;;;;;;;10.98;6.57;;;1.90;99.90;;;;;;4949095;29;20030;-89
2022/02/06 04:21:10;;;;;;;13.70;7.13;;;1.80;99.90;;;;;;4935057;29;20481;-88
2022/02/06 04:23:35;;;;;;;14.05;7.03;;;1.80;99.90;;;;;;4937823;29;20036;-88
2022/02/06 04:26:01;;;;;;;13.20;6.18;;;1.80;99.90;;;;;;4935475;29;20098;-88
2022/02/06 04:28:26;;;;;;;17.67;6.88;;;1.90;99.90;;;;;;4936470;29;20468;-88
2022/02/06 04:30:52;;;;;;;11.27;6.28;;;1.90;99.90;;;;;;4940129;29;20523;-88
2022/02/06 04:33:19;;;;;;;12.90;6.88;;;1.90;99.90;;;;;;4923685;29;20067;-88
2022/02/06 04:35:46;;;;;;;13.55;6.68;;;1.80;99.90;;;;;;4935683;29;20030;-89
2022/02/06 04:41:30;;;;;;;14.73;7.32;;;1.90;99.90;;;;;;4938480;29;20020;-89
2022/02/06 05:29:27;;;;;;;12.63;5.70;;;2.10;99.90;;;;;;4938017;29;20042;-88
2022/02/06 05:33:58;;;;;;;13.35;6.45;;;2.10;99.90;;;;;;4946830;29;20489;-89
2022/02/06 05:36:24;;;;;;;14.50;6.38;;;2.00;99.90;;;;;;4947043;29;20118;-88
2022/02/06 05:38:50;;;;;;;15.00;7.28;;;1.90;99.90;;;;;;4927079;29;20069;-87
2022/02/06 05:41:15;;;;;;;10.90;6.95;;;1.90;99.90;;;;;;4952811;29;20127;-88
2022/02/06 05:43:41;;;;;;;15.93;7.13;;;1.80;99.90;;;;;;4940652;29;20059;-88
2022/02/06 05:46:07;;;;;;;12.70;6.63;;;1.80;99.90;;;;;;4941834;29;20540;-88
2022/02/06 05:48:33;;;;;;;15.20;7.18;;;1.80;99.90;;;;;;4941402;29;20401;-89
2022/02/06 05:50:58;;;;;;;14.85;7.10;;;1.70;99.90;;;;;;4937898;29;20107;-88
2022/02/06 05:53:24;;;;;;;17.27;6.97;;;1.80;99.90;;;;;;4939364;29;20032;-88
2022/02/06 05:55:50;;;;;;;17.83;7.65;;;1.80;99.90;;;;;;4939668;29;20023;-89
2022/02/06 05:58:16;;;;;;;11.20;6.47;;;1.80;99.90;;;;;;4942037;29;20047;-89
2022/02/06 06:00:41;;;;;;;11.05;6.57;;;2.00;99.90;;;;;;4945443;29;20026;-89
2022/02/06 06:03:08;;;;;;;10.65;6.43;;;1.30;99.90;;;;;;4931263;29;20046;-89
2022/02/06 06:05:34;;;;;;;9.68;6.13;;;1.10;99.90;;;;;;4952591;29;20054;-89
2022/02/06 06:08:00;;;;;;;13.35;5.97;;;1.10;99.90;;;;;;4938183;29;20043;-88
2022/02/06 06:10:26;;;;;;;10.90;6.20;;;1.10;99.90;;;;;;4955928;29;20172;-88
2022/02/06 06:12:51;;;;;;;14.00;6.97;;;1.30;99.90;;;;;;4937803;29;20028;-89
2022/02/06 06:15:17;;;;;;;12.73;6.70;;;1.30;99.90;;;;;;4929789;29;20122;-88
2022/02/06 06:17:42;;;;;;;12.02;6.50;;;1.30;99.90;;;;;;4947120;29;20106;-88
2022/02/06 06:20:13;;;;;;;10.75;6.25;;;1.20;99.90;;;;;;4952201;29;20028;-87
2022/02/06 06:22:40;;;;;;;14.75;6.60;;;1.20;99.90;;;;;;4940641;29;20031;-88
2022/02/06 06:25:07;;;;;;;13.02;6.72;;;1.70;99.90;;;;;;4936045;29;20114;-89
2022/02/06 06:27:33;;;;;;;13.98;7.30;;;1.20;99.90;;;;;;4948001;29;20129;-88
2022/02/06 06:29:59;;;;;;;11.35;6.35;;;1.40;99.90;;;;;;4935749;29;20023;-88
2022/02/06 06:32:24;;;;;;;11.80;7.10;;;1.60;99.90;;;;;;4936308;29;20437;-88
2022/02/06 06:34:52;;;;;;;9.65;6.15;;;1.80;99.90;;;;;;4938391;29;20020;-88
2022/02/06 06:37:19;;;;;;;13.50;6.80;;;1.70;99.90;;;;;;4950002;29;20564;-89
2022/02/06 06:39:45;;;;;;;13.65;6.10;;;1.80;99.90;;;;;;4943580;29;20091;-89
2022/02/06 06:42:12;;;;;;;13.55;5.97;;;1.90;99.90;;;;;;4940525;29;20079;-88
2022/02/06 06:44:38;;;;;;;11.50;5.85;;;1.90;99.90;;;;;;4939154;29;20035;-88
2022/02/06 06:47:05;;;;;;;10.43;5.97;;;1.90;99.90;;;;;;4936172;29;20027;-88
2022/02/06 06:49:31;;;;;;;11.02;5.60;;;2.00;99.90;;;;;;4941016;29;20111;-88
2022/02/06 06:51:58;;;;;;;11.93;5.97;;;2.00;99.90;;;;;;4951297;29;20038;-89
2022/02/06 06:54:24;;;;;;;10.02;5.75;;;1.90;99.90;;;;;;4945754;29;20039;-88
2022/02/06 06:57:00;;;;;;;11.68;5.65;;;2.10;99.90;;;;;;4940333;29;20027;-88
2022/02/06 06:59:30;;;;;;;11.90;5.57;;;2.30;99.90;;;;;;4938454;29;20500;-88
2022/02/06 07:02:16;;;;;;;12.93;5.30;;;2.50;99.90;;;;;;4920575;29;20090;-89
2022/02/06 07:04:42;;;;;;;11.15;5.45;;;2.50;99.90;;;;;;4948474;29;20039;-88
2022/02/06 07:07:07;;;;;;;13.23;5.95;;;2.60;99.90;;;;;;4940899;29;20035;-88
2022/02/06 07:09:33;;;;;;;8.63;5.10;;;2.60;99.90;;;;;;4940184;29;20178;-88
2022/02/06 07:11:59;;;;;;;12.35;5.70;;;3.30;99.90;;;;;;4921654;29;20035;-88
2022/02/06 07:14:27;;;;;;;10.50;6.00;;;2.70;99.90;;;;;;4951105;29;20106;-88
2022/02/06 07:16:53;;;;;;;12.80;5.70;;;2.40;99.90;;;;;;4936908;29;20050;-89
2022/02/06 07:19:19;;;;;;;9.57;5.40;;;2.50;99.90;;;;;;4940723;29;20495;-87
2022/02/06 07:21:44;;;;;;;14.95;5.60;;;2.50;99.90;;;;;;4923509;29;20059;-89
2022/02/06 07:24:10;;;;;;;13.98;5.30;;;2.50;99.90;;;;;;4939521;29;20031;-88
2022/02/06 07:26:36;;;;;;;10.15;5.85;;;2.70;99.90;;;;;;4935363;29;20023;-89
2022/02/06 07:29:02;;;;;;;9.52;5.22;;;2.90;99.90;;;;;;4950739;29;20032;-88
2022/02/06 07:31:28;;;;;;;9.75;6.00;;;3.10;99.90;;;;;;4939547;29;20024;-88
2022/02/06 07:33:54;;;;;;;10.57;5.60;;;3.30;99.90;;;;;;4939293;29;20023;-88
2022/02/06 07:36:20;;;;;;;10.60;6.18;;;3.40;99.90;;;;;;4944670;29;20031;-89
2022/02/06 07:38:47;;;;;;;12.77;5.88;;;4.00;99.90;;;;;;4949325;29;20035;-89
2022/02/06 07:41:13;;;;;;;12.25;6.15;;;4.30;99.90;;;;;;4919565;29;20095;-90
2022/02/06 07:43:39;;;;;;;14.30;6.20;;;3.40;99.90;;;;;;4938674;29;20078;-89
2022/02/06 07:46:09;;;;;;;10.50;5.55;;;3.40;99.90;;;;;;4939519;29;20485;-90
2022/02/06 07:48:35;;;;;;;12.25;7.05;;;3.50;99.90;;;;;;4939279;29;20031;-88
2022/02/06 07:51:05;;;;;;;15.98;7.03;;;3.20;99.90;;;;;;4939634;29;20754;-89
2022/02/06 07:53:31;;;;;;;10.45;5.95;;;3.20;99.90;;;;;;4921595;29;20461;-89
2022/02/06 07:55:56;;;;;;;9.68;5.40;;;2.80;99.90;;;;;;4919173;29;20056;-90
2022/02/06 07:58:22;;;;;;;10.60;5.13;;;3.10;99.90;;;;;;4923357;29;20114;-89
2022/02/06 08:00:48;;;;;;;8.25;4.82;;;3.20;99.90;;;;;;4939361;29;20055;-90
2022/02/06 08:03:14;;;;;;;10.13;4.70;;;3.20;99.90;;;;;;4922324;29;20393;-89
2022/02/06 08:05:39;;;;;;;8.43;5.00;;;3.20;99.90;;;;;;4939741;29;20027;-89
2022/02/06 08:08:13;;;;;;;11.30;5.18;;;3.40;99.90;;;;;;4919235;29;20032;-89
2022/02/06 08:10:39;;;;;;;9.27;4.10;;;3.50;99.90;;;;;;4933655;29;20406;-89
2022/02/06 08:13:13;;;;;;;10.10;4.65;;;4.40;99.90;;;;;;4929367;29;20035;-89
2022/02/06 08:15:39;;;;;;;11.30;4.60;;;4.30;99.90;;;;;;4941946;29;20433;-90
2022/02/06 08:18:05;;;;;;;12.65;5.03;;;5.20;99.90;;;;;;4939540;29;20345;-90
2022/02/06 08:20:31;;;;;;;10.57;5.47;;;5.00;99.90;;;;;;4938187;29;20114;-94
2022/02/06 08:22:57;;;;;;;10.35;5.07;;;4.60;99.90;;;;;;4952427;29;20120;-89
2022/02/06 08:25:23;;;;;;;11.93;6.18;;;4.30;99.90;;;;;;4939386;29;20071;-89
2022/02/06 08:27:49;;;;;;;11.15;5.70;;;4.40;99.90;;;;;;4938884;29;20027;-90
2022/02/06 08:30:14;;;;;;;15.32;8.60;;;5.00;99.90;;;;;;4922831;29;20040;-90
2022/02/06 08:32:41;;;;;;;18.48;10.60;;;4.80;99.90;;;;;;4939890;29;20027;-90
2022/02/06 08:35:07;;;;;;;15.82;9.85;;;5.30;99.90;;;;;;4935463;29;20148;-90
2022/02/06 08:37:34;;;;;;;15.30;8.98;;;4.70;99.90;;;;;;4922489;29;20147;-90
2022/02/06 08:40:06;;;;;;;18.58;10.65;;;5.20;99.90;;;;;;4938974;29;20079;-90
2022/02/06 08:42:32;;;;;;;16.02;10.77;;;4.80;99.90;;;;;;4938629;29;20526;-90
2022/02/06 08:44:58;;;;;;;15.90;10.23;;;5.10;99.90;;;;;;4926147;29;20138;-92
2022/02/06 08:47:23;;;;;;;24.73;16.67;;;4.80;99.90;;;;;;4948602;29;20084;-92
2022/02/06 08:49:51;;;;;;;20.52;12.70;;;4.90;99.90;;;;;;4934066;29;20113;-91
2022/02/06 08:52:17;;;;;;;16.48;10.73;;;5.10;99.90;;;;;;4929879;29;20172;-92
2022/02/06 08:54:44;;;;;;;18.88;12.02;;;5.00;99.90;;;;;;4934134;29;20131;-92
2022/02/06 08:57:21;;;;;;;18.42;10.23;;;4.90;99.90;;;;;;4912049;29;20509;-93
2022/02/06 08:59:47;;;;;;;15.13;9.50;;;5.10;99.90;;;;;;4919811;29;20076;-90
2022/02/06 09:02:13;;;;;;;20.52;10.27;;;4.90;99.90;;;;;;4927602;29;20032;-91
2022/02/06 09:04:38;;;;;;;15.75;10.60;;;5.60;99.90;;;;;;4921853;29;20061;-93
2022/02/06 09:07:04;;;;;;;16.08;9.50;;;5.40;99.90;;;;;;4925045;29;20381;-96
2022/02/06 09:09:30;;;;;;;15.68;9.95;;;5.90;99.90;;;;;;4934121;29;20053;-92
2022/02/06 09:11:57;;;;;;;15.20;9.85;;;6.50;99.90;;;;;;4928591;29;20024;-95
2022/02/06 09:14:24;;;;;;;14.30;8.95;;;7.60;99.90;;;;;;4938039;29;20024;-92
2022/02/06 09:16:51;;;;;;;16.77;9.25;;;9.00;99.90;;;;;;4929938;29;20460;-94
2022/02/06 09:19:18;;;;;;;16.15;10.02;;;8.70;99.90;;;;;;5109175;23;20142;-96
2022/02/06 09:21:44;;;;;;;16.20;9.65;;;9.60;99.90;;;;;;4945948;29;20019;-96
2022/02/06 09:24:10;;;;;;;16.67;10.20;;;8.30;99.90;;;;;;4938076;29;20049;-92
2022/02/06 09:26:39;;;;;;;19.50;10.10;;;8.30;99.90;;;;;;4931894;29;20071;-94
2022/02/06 09:29:06;;;;;;;17.00;9.23;;;7.80;99.90;;;;;;4936282;29;20028;-94
2022/02/06 09:31:32;;;;;;;19.85;9.30;;;7.90;99.90;;;;;;4965356;29;20023;-96
2022/02/06 09:36:24;;;;;;;13.77;9.02;;;8.80;99.90;;;;;;4949865;29;20522;-92
2022/02/06 09:38:50;;;;;;;14.88;8.63;;;8.60;99.90;;;;;;4952335;29;20041;-92
2022/02/06 09:41:16;;;;;;;13.88;8.43;;;9.30;99.90;;;;;;4952718;29;20038;-92
2022/02/06 09:43:44;;;;;;;12.35;8.32;;;9.10;99.90;;;;;;4954968;29;20050;-94
2022/02/06 09:46:13;;;;;;;15.93;7.57;;;9.20;99.90;;;;;;4941456;29;20031;-95
2022/02/06 09:48:39;;;;;;;11.65;7.88;;;9.70;99.90;;;;;;4941058;29;20511;-93
2022/02/06 09:51:05;;;;;;;12.63;7.88;;;9.50;99.90;;;;;;4958139;29;20118;-93
2022/02/06 09:53:32;;;;;;;15.40;7.30;;;9.60;99.90;;;;;;4956273;29;20046;-93
2022/02/06 09:56:07;;;;;;;15.65;7.55;;;10.30;99.90;;;;;;4955823;29;20044;-92
2022/02/06 10:01:09;;;;;;;13.57;7.65;;;11.20;99.90;;;;;;4954754;29;20389;-93
2022/02/06 10:03:47;;;;;;;14.05;7.40;;;11.90;99.90;;;;;;4955995;29;20095;-91
2022/02/06 10:06:29;;;;;;;16.48;7.78;;;11.30;99.90;;;;;;4953980;29;20488;-91
2022/02/06 10:09:01;;;;;;;15.65;7.63;;;11.60;99.90;;;;;;4954674;29;20035;-92
2022/02/06 10:11:29;;;;;;;14.30;7.65;;;12.00;99.90;;;;;;4950819;29;20063;-90
2022/02/06 10:13:55;;;;;;;14.48;7.53;;;12.90;99.90;;;;;;4954311;29;20440;-92
2022/02/06 10:16:21;;;;;;;13.98;7.70;;;17.20;99.90;;;;;;4955426;29;20039;-91
2022/02/06 10:18:47;;;;;;;15.15;8.48;;;16.80;99.90;;;;;;4934530;29;20110;-93
2022/02/06 10:21:17;;;;;;;17.27;7.80;;;16.30;99.90;;;;;;4943337;29;20122;-93
2022/02/06 10:26:31;;;;;;;13.82;8.85;;;15.50;99.90;;;;;;4957275;28;20506;-92
2022/02/06 10:29:21;;;;;;;17.00;9.68;;;15.00;99.90;;;;;;4940454;28;20496;-89
2022/02/06 10:31:52;;;;;;;21.63;10.65;;;14.40;99.90;;;;;;4954146;28;20031;-88
2022/02/06 10:34:30;;;;;;;20.70;12.00;;;13.90;99.90;;;;;;4925540;29;20034;-94
2022/02/06 10:37:22;;;;;;;17.33;11.35;;;12.70;99.90;;;;;;4942248;29;20053;-94
2022/02/06 10:39:53;;;;;;;16.38;10.52;;;12.30;99.90;;;;;;4960846;28;20027;-96
2022/02/06 10:42:24;;;;;;;17.35;10.90;;;11.90;99.90;;;;;;4939150;29;20024;-96
2022/02/06 10:45:11;;;;;;;18.48;11.15;;;11.10;99.90;;;;;;4957493;28;20126;-96
2022/02/06 10:47:37;;;;;;;20.77;10.43;;;11.10;99.90;;;;;;4944462;28;20035;-96
2022/02/06 10:50:06;;;;;;;15.15;9.25;;;12.50;99.90;;;;;;4941896;28;20031;-96
2022/02/06 10:52:32;;;;;;;11.00;7.68;;;14.30;99.90;;;;;;4942022;29;20019;-96
2022/02/06 10:54:59;;;;;;;14.75;6.38;;;14.10;99.90;;;;;;4945182;29;20027;-96
2022/02/06 10:57:28;;;;;;;9.63;5.32;;;17.40;99.90;;;;;;4953070;29;20054;-96
2022/02/06 10:59:56;;;;;;;10.65;5.32;;;18.60;99.90;;;;;;4956126;28;20031;-96
2022/02/06 11:02:31;;;;;;;9.20;5.28;;;19.50;99.90;;;;;;4946327;28;20031;-96
2022/02/06 11:05:35;;;;;;;10.98;4.70;;;19.10;99.90;;;;;;4959802;28;20031;-96
2022/02/06 11:07:55;;;;;;;7.45;3.42;;;19.50;99.90;;;;;;4955403;28;20034;-96
2022/02/06 11:10:23;;;;;;;8.40;3.83;;;19.70;99.90;;;;;;4955752;29;20031;-96
2022/02/06 11:13:02;;;;;;;9.88;4.55;;;19.20;99.90;;;;;;4942850;29;20020;-90
2022/02/06 11:15:30;;;;;;;9.52;4.38;;;16.80;99.90;;;;;;4959861;28;20559;-91
2022/02/06 11:18:12;;;;;;;11.48;4.07;;;16.20;99.90;;;;;;4956933;28;20039;-89
2022/02/06 11:20:52;;;;;;;9.07;4.03;;;15.30;99.90;;;;;;4957480;28;20043;-89
2022/02/06 11:23:17;;;;;;;6.70;3.90;;;14.80;99.90;;;;;;4941730;28;20039;-90
2022/02/06 11:25:44;;;;;;;6.88;3.10;;;14.90;99.90;;;;;;4939608;28;20043;-93
2022/02/06 11:28:12;;;;;;;9.93;3.45;;;14.10;99.90;;;;;;4942631;29;20106;-90
2022/02/06 11:30:42;;;;;;;5.13;2.80;;;14.30;99.90;;;;;;4955414;28;20031;-87
2022/02/06 11:33:08;;;;;;;5.90;2.22;;;14.50;99.90;;;;;;4956077;28;20027;-89
2022/02/06 11:35:36;;;;;;;4.20;2.20;;;14.70;99.90;;;;;;4942832;29;20031;-90
2022/02/06 11:44:36;;;;;;;6.78;2.60;;;13.70;99.90;;;;;;4895680;29;20040;-88
2022/02/06 11:47:08;;;;;;;6.93;2.42;;;13.60;99.90;;;;;;4895382;29;20036;-88
2022/02/06 11:49:39;;;;;;;3.58;2.05;;;13.50;99.90;;;;;;4895607;29;20497;-85
2022/02/06 11:52:05;;;;;;;4.63;2.03;;;13.60;99.90;;;;;;4874049;29;20436;-93
2022/02/06 11:54:53;;;;;;;6.00;2.03;;;13.70;99.90;;;;;;4878446;29;20024;-91
2022/02/06 12:00:07;;;;;;;13.85;7.47;;;13.60;99.90;;;;;;4896813;29;20036;-89
2022/02/06 12:02:34;;;;;;;12.68;7.25;;;12.90;99.90;;;;;;4891205;29;20051;-93
2022/02/06 12:05:19;;;;;;;10.80;6.28;;;12.30;99.90;;;;;;4879294;29;20180;-86
2022/02/06 12:07:54;;;;;;;9.43;4.63;;;12.10;99.90;;;;;;4877449;29;20047;-91
2022/02/06 12:10:43;;;;;;;9.30;5.28;;;12.00;99.90;;;;;;4894344;29;20029;-87
2022/02/06 12:13:26;;;;;;;12.82;5.95;;;12.10;99.90;;;;;;4896021;29;20481;-90
2022/02/06 12:16:02;;;;;;;8.05;4.80;;;12.40;99.90;;;;;;4933412;29;20094;-92
2022/02/06 12:18:31;;;;;;;6.80;3.15;;;12.50;99.90;;;;;;4944150;29;20070;-93
2022/02/06 12:21:18;;;;;;;7.13;3.50;;;12.90;99.90;;;;;;4941254;29;20067;-90
2022/02/06 12:23:47;;;;;;;7.70;4.75;;;13.60;99.90;;;;;;4941477;29;20118;-92
2022/02/06 12:26:29;;;;;;;9.38;4.90;;;14.00;99.90;;;;;;4943083;28;20069;-94
2022/02/06 12:29:16;;;;;;;7.40;3.63;;;14.20;99.90;;;;;;4957162;28;20035;-89
2022/02/06 12:31:52;;;;;;;9.63;4.65;;;14.20;99.90;;;;;;4954644;28;20039;-91
2022/02/06 12:37:33;;;;;;;5.13;1.65;;;13.30;99.90;;;;;;4933719;29;20040;-91
2022/02/06 12:40:23;;;;;;;3.58;1.60;;;12.90;99.90;;;;;;4921793;29;20051;-91
2022/02/06 12:42:58;;;;;;;5.78;1.98;;;12.70;99.90;;;;;;4946920;29;20043;-93
2022/02/06 12:45:25;;;;;;;3.10;1.65;;;12.50;99.90;;;;;;4958419;29;20038;-94
2022/02/06 12:47:58;;;;;;;3.50;1.30;;;12.70;99.90;;;;;;4958236;29;20035;-93
2022/02/06 12:50:33;;;;;;;4.22;1.20;;;12.60;99.90;;;;;;4954831;29;20122;-88
2022/02/06 12:53:00;;;;;;;1.88;0.90;;;12.80;99.90;;;;;;4939754;29;20039;-86
2022/02/06 12:55:31;;;;;;;3.08;0.88;;;12.80;99.90;;;;;;4938222;29;20087;-88
2022/02/06 12:57:58;;;;;;;4.43;1.00;;;12.80;99.90;;;;;;4939289;29;20035;-85
2022/02/06 13:00:25;;;;;;;2.28;1.05;;;13.10;99.90;;;;;;4938859;29;20032;-85
2022/02/06 13:02:51;;;;;;;3.25;1.00;;;13.60;99.90;;;;;;4939454;29;20463;-85
2022/02/06 13:05:17;;;;;;;2.78;1.08;;;13.30;99.90;;;;;;4938461;29;20027;-86
2022/02/06 13:07:45;;;;;;;3.97;1.00;;;12.70;99.90;;;;;;4935382;29;20110;-85
2022/02/06 13:10:13;;;;;;;4.13;1.02;;;12.60;99.90;;;;;;4939229;29;20036;-85
2022/02/06 13:12:48;;;;;;;2.42;0.95;;;12.30;99.90;;;;;;4935934;29;20024;-86
2022/02/06 13:15:42;;;;;;;3.30;1.10;;;12.00;99.90;;;;;;4954262;28;20582;-85
2022/02/06 13:18:25;;;;;;;3.95;1.13;;;11.70;99.90;;;;;;4942517;29;20038;-85
2022/02/06 13:23:47;;;;;;;2.33;0.88;;;11.70;99.90;;;;;;4957524;28;20031;-85
2022/02/06 13:26:25;;;;;;;3.40;0.90;;;11.00;99.90;;;;;;4943020;28;20045;-86
2022/02/06 13:31:33;;;;;;;1.40;0.90;;;10.90;99.90;;;;;;4956773;28;20039;-85
2022/02/06 13:38:58;;;;;;;2.80;0.93;;;11.10;99.90;;;;;;4957587;28;20031;-85
2022/02/06 13:41:28;;;;;;;2.45;1.08;;;11.20;99.90;;;;;;4941363;29;20130;-85
2022/02/06 13:43:56;;;;;;;3.50;1.30;;;11.30;99.90;;;;;;4957226;28;20492;-85
2022/02/06 13:46:28;;;;;;;4.60;1.65;;;11.10;99.90;;;;;;4954829;29;20035;-86
2022/02/06 13:48:56;;;;;;;2.28;1.10;;;11.00;99.90;;;;;;4957146;28;20502;-85
2022/02/06 13:51:32;;;;;;;3.88;1.00;;;10.60;99.90;;;;;;4942345;29;20029;-84
2022/02/06 13:54:02;;;;;;;3.42;1.00;;;10.60;99.90;;;;;;4942162;28;20177;-85
2022/02/06 13:56:28;;;;;;;4.93;1.40;;;10.40;99.90;;;;;;4957483;28;20034;-85
2022/02/06 13:59:08;;;;;;;3.78;1.10;;;10.60;99.90;;;;;;4956605;28;20423;-85
2022/02/06 14:01:43;;;;;;;5.47;1.45;;;10.60;99.90;;;;;;4957094;29;20030;-85
2022/02/06 14:04:31;;;;;;;3.15;1.25;;;10.60;99.90;;;;;;4956567;28;20043;-85
2022/02/06 14:07:05;;;;;;;2.95;1.15;;;10.60;99.90;;;;;;4956876;28;20085;-85
2022/02/06 14:10:22;;;;;;;2.00;1.10;;;10.50;99.90;;;;;;4957299;28;20056;-85
2022/02/06 14:12:22;;;;;;;3.20;1.10;;;10.60;99.90;;;;;;4949647;28;20126;-85
2022/02/06 14:14:59;;;;;;;2.13;1.23;;;10.60;99.90;;;;;;4956739;28;20039;-85
2022/02/06 14:17:38;;;;;;;4.63;1.70;;;10.60;99.90;;;;;;4956002;28;20015;-84
2022/02/06 14:20:24;;;;;;;2.30;1.27;;;10.40;99.90;;;;;;4955849;28;20534;-84
2022/02/06 14:22:53;;;;;;;1.00;0.70;;;10.30;99.90;;;;;;4954402;28;20027;-85
2022/02/06 14:25:30;;;;;;;2.22;1.10;;;10.30;99.90;;;;;;4953942;29;20089;-87
2022/02/06 14:27:58;;;;;;;2.88;1.00;;;10.40;99.90;;;;;;4956031;28;20054;-85
2022/02/06 14:30:29;;;;;;;2.88;1.20;;;10.30;99.90;;;;;;4956753;28;20023;-85
2022/02/06 14:32:59;;;;;;;5.15;1.13;;;10.30;99.90;;;;;;4955973;28;20039;-85
2022/02/06 14:35:41;;;;;;;1.92;0.90;;;10.50;99.90;;;;;;4956620;28;20161;-85
2022/02/06 14:38:10;;;;;;;3.92;1.27;;;10.60;99.90;;;;;;4941541;28;20023;-85
2022/02/06 14:41:05;;;;;;;2.38;1.20;;;10.70;99.90;;;;;;4951515;29;20582;-85
2022/02/06 14:43:39;;;;;;;2.95;1.40;;;10.90;99.90;;;;;;4934524;29;20051;-85
2022/02/06 14:46:06;;;;;;;1.95;1.33;;;11.30;99.90;;;;;;4957273;28;20563;-85
2022/02/06 14:48:32;;;;;;;2.15;0.98;;;11.90;99.90;;;;;;4955914;28;20023;-85
2022/02/06 14:50:58;;;;;;;3.70;1.60;;;12.80;99.90;;;;;;4955948;28;20037;-85
2022/02/06 14:53:25;;;;;;;4.63;1.25;;;12.50;99.90;;;;;;4956102;28;20028;-85
2022/02/06 14:55:53;;;;;;;2.90;1.10;;;12.20;99.90;;;;;;4955995;28;20106;-85
2022/02/06 14:58:19;;;;;;;4.07;1.70;;;11.60;99.90;;;;;;4953223;29;20141;-85
2022/02/06 15:00:45;;;;;;;2.08;1.20;;;11.90;99.90;;;;;;4954910;28;20031;-85
2022/02/06 15:03:11;;;;;;;3.38;1.20;;;11.40;99.90;;;;;;4955415;28;20126;-85
2022/02/06 15:05:38;;;;;;;2.25;1.33;;;11.70;99.90;;;;;;4954950;28;20540;-85
2022/02/06 15:08:05;;;;;;;1.95;1.20;;;11.50;99.90;;;;;;4955443;28;20019;-85
2022/02/06 15:10:32;;;;;;;1.48;1.02;;;11.00;99.90;;;;;;4954605;29;20031;-85
2022/02/06 15:12:58;;;;;;;2.75;1.38;;;10.80;99.90;;;;;;4940909;29;20039;-85
2022/02/06 15:15:31;;;;;;;2.65;1.20;;;10.70;99.90;;;;;;4955084;28;20083;-85
2022/02/06 15:17:59;;;;;;;1.60;0.80;;;10.60;99.90;;;;;;4957921;28;20059;-86
2022/02/06 15:20:24;;;;;;;1.60;1.10;;;10.50;99.90;;;;;;4939763;29;20074;-85
2022/02/06 15:22:50;;;;;;;1.65;1.08;;;10.40;99.90;;;;;;4954728;28;20073;-85
2022/02/06 15:25:16;;;;;;;2.83;1.00;;;10.50;99.90;;;;;;4954694;28;20043;-84
2022/02/06 15:27:41;;;;;;;3.42;1.00;;;10.60;99.90;;;;;;4955704;28;20023;-85
2022/02/06 15:30:07;;;;;;;1.90;1.20;;;10.60;99.90;;;;;;4956219;28;20089;-86
2022/02/06 15:32:33;;;;;;;2.05;1.10;;;10.60;99.90;;;;;;4955230;28;20088;-85
2022/02/06 15:34:58;;;;;;;1.73;0.80;;;10.40;99.90;;;;;;4955584;28;20403;-85
2022/02/06 15:37:29;;;;;;;2.40;0.90;;;10.60;99.90;;;;;;4954528;29;20031;-85
2022/02/06 15:39:54;;;;;;;1.10;0.90;;;10.40;99.90;;;;;;4954834;28;20038;-85
2022/02/06 15:42:21;;;;;;;1.42;1.02;;;10.30;99.90;;;;;;4940515;29;20402;-86